Time;durP1;ratioP1;P1;durP2;ratioP2;P2;SDS_P1;SDS_P2;PMS_P1;PMS_P2;Temp;Humidity;BMP_temperature;BMP_pressure;BME280_temperature;BME280_humidity;BME280_pressure;Samples;Min_cycle;Max_cycle;Signal;HPM_P1;HPM_P2
2022/01/29 00:01:08;;;;;;;;;;;;;;;;;;5040892;28;19935;-66
2022/01/29 00:03:35;;;;;;;;;;;;;;;;;;5048081;28;19938;-68
2022/01/29 00:06:01;;;;;;;;;;;;;;;;;;5039381;28;19912;-67
2022/01/29 00:08:26;;;;;;;;;;;;;;;;;;5043004;28;20400;-67
2022/01/29 00:11:00;;;;;;;;;;;;;;;;;;5040144;28;20341;-67
2022/01/29 00:13:25;;;;;;;;;;;;;;;;;;5036317;28;19986;-69
2022/01/29 00:15:51;;;;;;;;;;;;;;;;;;5046694;28;20693;-67
2022/01/29 00:18:16;;;;;;;;;;;;;;;;;;5037090;28;19923;-68
2022/01/29 00:20:41;;;;;;;;;;;;;;;;;;5037030;28;20494;-70
2022/01/29 00:23:07;;;;;;;;;;;;;;;;;;5044118;28;20373;-67
2022/01/29 00:25:32;;;;;;;;;;;;;;;;;;5035069;28;19923;-70
2022/01/29 00:27:59;;;;;;;;;;;;;;;;;;5043370;28;19917;-72
2022/01/29 00:30:30;;;;;;;;;;;;;;;;;;5034996;28;19971;-69
2022/01/29 00:32:56;;;;;;;;;;;;;;;;;;5037151;28;19921;-66
2022/01/29 00:35:21;;;;;;;;;;;;;;;;;;5041791;28;19928;-69
2022/01/29 00:37:47;;;;;;;;;;;;;;;;;;5039121;28;19924;-69
2022/01/29 00:40:12;;;;;;;;;;;;;;;;;;5041591;28;20271;-68
2022/01/29 00:42:37;;;;;;;;;;;;;;;;;;5027079;28;19917;-68
2022/01/29 00:45:02;;;;;;;;;;;;;;;;;;5039357;28;19924;-67
2022/01/29 00:47:27;;;;;;;;;;;;;;;;;;5041978;28;19916;-70
2022/01/29 00:49:53;;;;;;;;;;;;;;;;;;5035854;28;19917;-68
2022/01/29 00:52:18;;;;;;;;;;;;;;;;;;5038792;28;19954;-68
2022/01/29 00:54:45;;;;;;;;;;;;;;;;;;5042027;28;19966;-71
2022/01/29 00:57:10;;;;;;;;;;;;;;;;;;5040247;28;19916;-69
2022/01/29 00:59:35;;;;;;;;;;;;;;;;;;5040666;28;20258;-70
2022/01/29 01:02:02;;;;;;;;;;;;;;;;;;5036187;28;19916;-68
2022/01/29 01:04:27;;;;;;;;;;;;;;;;;;5046631;28;19916;-68
2022/01/29 01:06:53;;;;;;;;;;;;;;;;;;5036292;28;19916;-70
2022/01/29 01:09:18;;;;;;;;;;;;;;;;;;5037101;28;19924;-69
2022/01/29 01:11:43;;;;;;;;;;;;;;;;;;5040317;28;19924;-68
2022/01/29 01:14:08;;;;;;;;;;;;;;;;;;5039824;28;19924;-71
2022/01/29 01:16:33;;;;;;;;;;;;;;;;;;5046503;28;19975;-68
2022/01/29 01:18:59;;;;;;;;;;;;;;;;;;5033136;28;20286;-68
2022/01/29 01:21:24;;;;;;;;;;;;;;;;;;5039682;28;20292;-68
2022/01/29 01:23:49;;;;;;;;;;;;;;;;;;5049544;28;20312;-68
2022/01/29 01:26:14;;;;;;;;;;;;;;;;;;5041750;28;19916;-67
2022/01/29 01:28:39;;;;;;;;;;;;;;;;;;5043377;28;20395;-68
2022/01/29 01:31:05;;;;;;;;;;;;;;;;;;5041880;28;19920;-68
2022/01/29 01:33:30;;;;;;;;;;;;;;;;;;5039954;28;20015;-69
2022/01/29 01:35:59;;;;;;;;;;;;;;;;;;5050458;28;19916;-68
2022/01/29 01:38:51;;;;;;;;;;;;;;;;;;5042436;28;20262;-70
2022/01/29 01:41:14;;;;;;;;;;;;;;;;;;5041762;28;19923;-69
2022/01/29 01:43:39;;;;;;;;;;;;;;;;;;5051360;28;19971;-67
2022/01/29 01:46:04;;;;;;;;;;;;;;;;;;5046439;28;19916;-68
2022/01/29 01:48:29;;;;;;;;;;;;;;;;;;5047841;28;20392;-68
2022/01/29 01:50:55;;;;;;;;;;;;;;;;;;5042734;28;19956;-70
2022/01/29 01:53:20;;;;;;;;;;;;;;;;;;5043278;28;20031;-69
2022/01/29 01:55:45;;;;;;;;;;;;;;;;;;5050599;28;19962;-70
2022/01/29 01:58:10;;;;;;;;;;;;;;;;;;5046778;28;19950;-71
2022/01/29 02:00:36;;;;;;;;;;;;;;;;;;5047208;28;20057;-67
2022/01/29 02:03:01;;;;;;;;;;;;;;;;;;5046330;28;19916;-70
2022/01/29 02:05:26;;;;;;;;;;;;;;;;;;5042628;28;19923;-68
2022/01/29 02:07:51;;;;;;;;;;;;;;;;;;5048958;28;20011;-68
2022/01/29 02:10:18;;;;;;;;;;;;;;;;;;5046380;28;19916;-70
2022/01/29 02:12:43;;;;;;;;;;;;;;;;;;5050493;28;19920;-70
2022/01/29 02:15:08;;;;;;;;;;;;;;;;;;5043247;28;20404;-69
2022/01/29 02:17:33;;;;;;;;;;;;;;;;;;5048735;28;19917;-69
2022/01/29 02:19:59;;;;;;;;;;;;;;;;;;5052742;28;19923;-71
2022/01/29 02:22:24;;;;;;;;;;;;;;;;;;5043206;28;19916;-68
2022/01/29 02:24:49;;;;;;;;;;;;;;;;;;5049169;28;20303;-71
2022/01/29 02:27:14;;;;;;;;;;;;;;;;;;5048706;28;20487;-68
2022/01/29 02:29:40;;;;;;;;;;;;;;;;;;5046556;28;19917;-69
2022/01/29 02:32:05;;;;;;;;;;;;;;;;;;5049658;28;20309;-70
2022/01/29 02:34:30;;;;;;;;;;;;;;;;;;5046703;28;20412;-70
2022/01/29 02:36:56;;;;;;;;;;;;;;;;;;5052200;28;19917;-69
2022/01/29 02:39:21;;;;;;;;;;;;;;;;;;5048236;28;19917;-69
2022/01/29 02:41:47;;;;;;;;;;;;;;;;;;5043152;28;19916;-67
2022/01/29 02:44:15;;;;;;;;;;;;;;;;;;5050883;28;19916;-69
2022/01/29 02:46:48;;;;;;;;;;;;;;;;;;5042848;28;19982;-69
2022/01/29 02:49:13;;;;;;;;;;;;;;;;;;5046556;28;19916;-67
2022/01/29 02:51:39;;;;;;;;;;;;;;;;;;5043862;28;19917;-68
2022/01/29 02:54:04;;;;;;;;;;;;;;;;;;5043089;28;19929;-69
2022/01/29 02:56:29;;;;;;;;;;;;;;;;;;5046667;28;20035;-68
2022/01/29 02:58:54;;;;;;;;;;;;;;;;;;5039802;28;19923;-67
2022/01/29 03:01:19;;;;;;;;;;;;;;;;;;5047581;28;19923;-67
2022/01/29 03:03:45;;;;;;;;;;;;;;;;;;5046197;28;19922;-66
2022/01/29 03:06:10;;;;;;;;;;;;;;;;;;5044987;28;19928;-68
2022/01/29 03:08:35;;;;;;;;;;;;;;;;;;5049051;28;19923;-67
2022/01/29 03:11:01;;;;;;;;;;;;;;;;;;5041753;28;19956;-66
2022/01/29 03:13:26;;;;;;;;;;;;;;;;;;5048557;28;20008;-68
2022/01/29 03:15:51;;;;;;;;;;;;;;;;;;5043343;28;19920;-66
2022/01/29 03:18:16;;;;;;;;;;;;;;;;;;5039603;28;20729;-66
2022/01/29 03:20:41;;;;;;;;;;;;;;;;;;5045340;28;20602;-67
2022/01/29 03:23:07;;;;;;;;;;;;;;;;;;5039420;28;20379;-68
2022/01/29 03:25:32;;;;;;;;;;;;;;;;;;5050068;28;19920;-69
2022/01/29 03:27:57;;;;;;;;;;;;;;;;;;5041063;28;19916;-68
2022/01/29 03:30:22;;;;;;;;;;;;;;;;;;5041690;28;19917;-67
2022/01/29 03:32:47;;;;;;;;;;;;;;;;;;5047432;28;19921;-65
2022/01/29 03:35:13;;;;;;;;;;;;;;;;;;5041614;28;20378;-66
2022/01/29 03:37:38;;;;;;;;;;;;;;;;;;5052467;28;19912;-66
2022/01/29 03:40:06;;;;;;;;;;;;;;;;;;5038342;28;19964;-66
2022/01/29 03:42:36;;;;;;;;;;;;;;;;;;5043659;28;19916;-67
2022/01/29 03:45:02;;;;;;;;;;;;;;;;;;5045985;28;19920;-67
2022/01/29 03:47:27;;;;;;;;;;;;;;;;;;5040618;28;19950;-68
2022/01/29 03:49:52;;;;;;;;;;;;;;;;;;5048151;28;20000;-67
2022/01/29 03:52:18;;;;;;;;;;;;;;;;;;5046406;28;19970;-66
2022/01/29 03:54:43;;;;;;;;;;;;;;;;;;5041963;28;20031;-66
2022/01/29 03:57:08;;;;;;;;;;;;;;;;;;5047002;28;20390;-67
2022/01/29 03:59:33;;;;;;;;;;;;;;;;;;5041819;28;19970;-66
2022/01/29 04:01:58;;;;;;;;;;;;;;;;;;5047062;28;20332;-66
2022/01/29 04:04:24;;;;;;;;;;;;;;;;;;5040379;28;20372;-67
2022/01/29 04:06:50;;;;;;;;;;;;;;;;;;5046684;28;19966;-66
2022/01/29 04:09:15;;;;;;;;;;;;;;;;;;5047451;28;19920;-66
2022/01/29 04:11:41;;;;;;;;;;;;;;;;;;5043630;28;19924;-66
2022/01/29 04:14:15;;;;;;;;;;;;;;;;;;5046001;28;20459;-68
2022/01/29 04:16:40;;;;;;;;;;;;;;;;;;5043049;28;19917;-69
2022/01/29 04:19:05;;;;;;;;;;;;;;;;;;5038218;28;19917;-68
2022/01/29 04:21:30;;;;;;;;;;;;;;;;;;5044921;28;19927;-71
2022/01/29 04:23:55;;;;;;;;;;;;;;;;;;5042800;28;19952;-68
2022/01/29 04:26:21;;;;;;;;;;;;;;;;;;5045995;28;19920;-68
2022/01/29 04:28:47;;;;;;;;;;;;;;;;;;5038663;28;20246;-68
2022/01/29 04:31:17;;;;;;;;;;;;;;;;;;5039661;28;20007;-68
2022/01/29 04:33:42;;;;;;;;;;;;;;;;;;5048376;28;19925;-67
2022/01/29 04:36:09;;;;;;;;;;;;;;;;;;5039216;28;19921;-66
2022/01/29 04:38:34;;;;;;;;;;;;;;;;;;5038238;28;19917;-70
2022/01/29 04:41:03;;;;;;;;;;;;;;;;;;5046458;28;19947;-67
2022/01/29 04:43:28;;;;;;;;;;;;;;;;;;5040224;28;19970;-66
2022/01/29 04:45:54;;;;;;;;;;;;;;;;;;5049398;28;19920;-66
2022/01/29 04:48:19;;;;;;;;;;;;;;;;;;5041669;28;20293;-67
2022/01/29 04:50:44;;;;;;;;;;;;;;;;;;5041212;28;19917;-67
2022/01/29 04:53:09;;;;;;;;;;;;;;;;;;5046660;28;19927;-67
2022/01/29 04:55:36;;;;;;;;;;;;;;;;;;5037353;28;19927;-67
2022/01/29 04:58:01;;;;;;;;;;;;;;;;;;5050899;28;19964;-66
2022/01/29 05:00:27;;;;;;;;;;;;;;;;;;5038951;28;20495;-68
2022/01/29 05:02:52;;;;;;;;;;;;;;;;;;5040516;28;20387;-69
2022/01/29 05:05:17;;;;;;;;;;;;;;;;;;5046462;28;19971;-70
2022/01/29 05:07:42;;;;;;;;;;;;;;;;;;5040233;28;20004;-69
2022/01/29 05:10:07;;;;;;;;;;;;;;;;;;5046681;28;19927;-66
2022/01/29 05:12:51;;;;;;;;;;;;;;;;;;5043578;28;19962;-68
2022/01/29 05:28:37;;;;;;;;;;;;;;;;;;5035487;28;19921;-68
2022/01/29 05:31:03;;;;;;;;;;;;;;;;;;5042987;28;19940;-66
2022/01/29 05:33:28;;;;;;;;;;;;;;;;;;5046169;28;20250;-69
2022/01/29 05:35:53;;;;;;;;;;;;;;;;;;5039567;28;20221;-69
2022/01/29 05:38:18;;;;;;;;;;;;;;;;;;5047437;28;20382;-70
2022/01/29 05:40:44;;;;;;;;;;;;;;;;;;5040077;28;20363;-67
2022/01/29 05:43:10;;;;;;;;;;;;;;;;;;5042709;28;19917;-67
2022/01/29 05:45:35;;;;;;;;;;;;;;;;;;5045444;28;19913;-68
2022/01/29 05:48:00;;;;;;;;;;;;;;;;;;5041493;28;19916;-68
2022/01/29 05:50:25;;;;;;;;;;;;;;;;;;5044878;28;19962;-68
2022/01/29 05:52:51;;;;;;;;;;;;;;;;;;5039515;28;20587;-70
2022/01/29 05:55:16;;;;;;;;;;;;;;;;;;5040395;28;19921;-68
2022/01/29 05:57:41;;;;;;;;;;;;;;;;;;5047459;28;20737;-69
2022/01/29 06:00:06;;;;;;;;;;;;;;;;;;5039692;28;20413;-65
2022/01/29 06:02:40;;;;;;;;;;;;;;;;;;5047652;28;20007;-67
2022/01/29 06:05:05;;;;;;;;;;;;;;;;;;5042752;28;20031;-68
2022/01/29 06:07:30;;;;;;;;;;;;;;;;;;5036509;28;19912;-66
2022/01/29 06:09:56;;;;;;;;;;;;;;;;;;5038420;28;19987;-70
2022/01/29 06:12:21;;;;;;;;;;;;;;;;;;5034893;28;20011;-68
2022/01/29 06:14:46;;;;;;;;;;;;;;;;;;5047237;28;19920;-65
2022/01/29 06:17:12;;;;;;;;;;;;;;;;;;5038354;28;20394;-67
2022/01/29 06:19:37;;;;;;;;;;;;;;;;;;5040966;28;19917;-70
2022/01/29 06:22:07;;;;;;;;;;;;;;;;;;5048245;28;19921;-71
2022/01/29 06:24:33;;;;;;;;;;;;;;;;;;5044665;28;19927;-66
2022/01/29 06:26:58;;;;;;;;;;;;;;;;;;5052247;28;20285;-69
2022/01/29 06:29:23;;;;;;;;;;;;;;;;;;5031028;28;20354;-71
2022/01/29 06:31:49;;;;;;;;;;;;;;;;;;5042554;28;20421;-65
2022/01/29 06:34:14;;;;;;;;;;;;;;;;;;5051414;28;20345;-66
2022/01/29 06:36:39;;;;;;;;;;;;;;;;;;5041249;28;19975;-70
2022/01/29 06:39:05;;;;;;;;;;;;;;;;;;5051279;28;19913;-67
2022/01/29 06:41:30;;;;;;;;;;;;;;;;;;5045316;28;19917;-68
2022/01/29 06:43:55;;;;;;;;;;;;;;;;;;5042306;28;19917;-68
2022/01/29 06:46:20;;;;;;;;;;;;;;;;;;5050680;28;20023;-67
2022/01/29 06:48:45;;;;;;;;;;;;;;;;;;5040291;28;19923;-69
2022/01/29 06:51:11;;;;;;;;;;;;;;;;;;5046357;28;19917;-67
2022/01/29 06:53:36;;;;;;;;;;;;;;;;;;5039459;28;19920;-69
2022/01/29 06:56:01;;;;;;;;;;;;;;;;;;5042850;28;19927;-67
2022/01/29 06:58:26;;;;;;;;;;;;;;;;;;5046472;28;19920;-67
2022/01/29 07:00:51;;;;;;;;;;;;;;;;;;5040598;28;20569;-68
2022/01/29 07:03:17;;;;;;;;;;;;;;;;;;5046616;28;19916;-68
2022/01/29 07:05:42;;;;;;;;;;;;;;;;;;5042478;28;19966;-69
2022/01/29 07:08:07;;;;;;;;;;;;;;;;;;5035360;28;20347;-67
2022/01/29 07:10:33;;;;;;;;;;;;;;;;;;5046054;28;19932;-69
2022/01/29 07:12:58;;;;;;;;;;;;;;;;;;5042601;28;19927;-68
2022/01/29 07:15:23;;;;;;;;;;;;;;;;;;5048863;28;19928;-69
2022/01/29 07:17:48;;;;;;;;;;;;;;;;;;5038892;28;19921;-70
2022/01/29 07:20:14;;;;;;;;;;;;;;;;;;5038845;28;20340;-69
2022/01/29 07:22:39;;;;;;;;;;;;;;;;;;5045736;28;20523;-68
2022/01/29 07:25:04;;;;;;;;;;;;;;;;;;5043259;28;19917;-68
2022/01/29 07:27:29;;;;;;;;;;;;;;;;;;5050142;28;19916;-69
2022/01/29 07:29:55;;;;;;;;;;;;;;;;;;5043122;28;20438;-68
2022/01/29 07:32:20;;;;;;;;;;;;;;;;;;5041295;28;19920;-67
2022/01/29 07:34:45;;;;;;;;;;;;;;;;;;5050411;28;20000;-68
2022/01/29 07:37:10;;;;;;;;;;;;;;;;;;5043547;28;20457;-67
2022/01/29 07:39:36;;;;;;;;;;;;;;;;;;5048213;28;20392;-67
2022/01/29 07:42:01;;;;;;;;;;;;;;;;;;5040371;28;20013;-71
2022/01/29 07:44:28;;;;;;;;;;;;;;;;;;5042082;28;19931;-66
2022/01/29 07:46:54;;;;;;;;;;;;;;;;;;5045637;28;20290;-68
2022/01/29 07:49:19;;;;;;;;;;;;;;;;;;5036217;28;19924;-67
2022/01/29 07:51:44;;;;;;;;;;;;;;;;;;5049782;28;19917;-67
2022/01/29 07:54:09;;;;;;;;;;;;;;;;;;5044575;28;19933;-69
2022/01/29 07:56:34;;;;;;;;;;;;;;;;;;5040296;28;20022;-67
2022/01/29 07:59:00;;;;;;;;;;;;;;;;;;5049776;28;19932;-70
2022/01/29 08:01:25;;;;;;;;;;;;;;;;;;5041165;28;20479;-71
2022/01/29 08:03:50;;;;;;;;;;;;;;;;;;5050893;28;20336;-69
2022/01/29 08:06:16;;;;;;;;;;;;;;;;;;5040926;28;20329;-70
2022/01/29 08:08:41;;;;;;;;;;;;;;;;;;5039141;28;20013;-69
2022/01/29 08:11:06;;;;;;;;;;;;;;;;;;5045642;28;19963;-70
2022/01/29 08:13:31;;;;;;;;;;;;;;;;;;5037490;28;20376;-68
2022/01/29 08:15:56;;;;;;;;;;;;;;;;;;5047152;28;19932;-68
2022/01/29 08:18:22;;;;;;;;;;;;;;;;;;5038095;28;19917;-69
2022/01/29 08:20:47;;;;;;;;;;;;;;;;;;5040641;28;19923;-68
2022/01/29 08:23:12;;;;;;;;;;;;;;;;;;5044677;28;19916;-71
2022/01/29 08:25:37;;;;;;;;;;;;;;;;;;5042824;28;19917;-68
2022/01/29 08:28:02;;;;;;;;;;;;;;;;;;5044235;28;19921;-68
2022/01/29 08:30:28;;;;;;;;;;;;;;;;;;5038772;28;19916;-68
2022/01/29 08:32:53;;;;;;;;;;;;;;;;;;5036901;28;19925;-68
2022/01/29 08:35:18;;;;;;;;;;;;;;;;;;5040371;28;19917;-69
2022/01/29 08:37:43;;;;;;;;;;;;;;;;;;5033179;28;19917;-72
2022/01/29 08:40:09;;;;;;;;;;;;;;;;;;5040402;28;19991;-68
2022/01/29 08:42:34;;;;;;;;;;;;;;;;;;5013084;28;19982;-71
2022/01/29 08:44:59;;;;;;;;;;;;;;;;;;5017294;28;19974;-70
2022/01/29 08:47:24;;;;;;;;;;;;;;;;;;5023748;28;19917;-72
2022/01/29 08:49:49;;;;;;;;;;;;;;;;;;5022341;28;19967;-71
2022/01/29 08:52:15;;;;;;;;;;;;;;;;;;5018790;28;20044;-73
2022/01/29 08:54:40;;;;;;;;;;;;;;;;;;5022775;28;20184;-73
2022/01/29 08:57:05;;;;;;;;;;;;;;;;;;5020432;28;19921;-71
2022/01/29 08:59:30;;;;;;;;;;;;;;;;;;5012658;28;19921;-72
2022/01/29 09:01:55;;;;;;;;;;;;;;;;;;5020249;28;19917;-72
2022/01/29 09:04:21;;;;;;;;;;;;;;;;;;5019849;28;19923;-73
2022/01/29 09:06:46;;;;;;;;;;;;;;;;;;5016439;28;19916;-73
2022/01/29 09:09:11;;;;;;;;;;;;;;;;;;5022351;28;19921;-73
2022/01/29 09:11:36;;;;;;;;;;;;;;;;;;5007951;28;19917;-74
2022/01/29 09:14:02;;;;;;;;;;;;;;;;;;5011303;28;19960;-73
2022/01/29 09:16:27;;;;;;;;;;;;;;;;;;5023100;28;20396;-72
2022/01/29 09:18:52;;;;;;;;;;;;;;;;;;5021645;28;20321;-73
2022/01/29 09:21:17;;;;;;;;;;;;;;;;;;5020269;28;19917;-71
2022/01/29 09:23:43;;;;;;;;;;;;;;;;;;5025656;28;20582;-71
2022/01/29 09:26:08;;;;;;;;;;;;;;;;;;5023910;28;19921;-70
2022/01/29 09:28:33;;;;;;;;;;;;;;;;;;5022392;28;20448;-72
2022/01/29 09:30:58;;;;;;;;;;;;;;;;;;5023592;28;19952;-72
2022/01/29 09:33:23;;;;;;;;;;;;;;;;;;5023412;28;19931;-73
2022/01/29 09:35:49;;;;;;;;;;;;;;;;;;5023652;28;20807;-71
2022/01/29 09:38:14;;;;;;;;;;;;;;;;;;5027774;28;20506;-72
2022/01/29 09:40:39;;;;;;;;;;;;;;;;;;5021781;28;19917;-72
2022/01/29 09:43:06;;;;;;;;;;;;;;;;;;5023110;28;19943;-71
2022/01/29 09:45:31;;;;;;;;;;;;;;;;;;5022395;28;19921;-73
2022/01/29 09:48:01;;;;;;;;;;;;;;;;;;5023024;28;20018;-71
2022/01/29 09:50:27;;;;;;;;;;;;;;;;;;5018403;28;19999;-70
2022/01/29 09:52:52;;;;;;;;;;;;;;;;;;5010112;28;19921;-69
2022/01/29 09:55:17;;;;;;;;;;;;;;;;;;5020659;28;19931;-69
2022/01/29 09:57:42;;;;;;;;;;;;;;;;;;5025455;28;19917;-69
2022/01/29 10:00:08;;;;;;;;;;;;;;;;;;5027090;28;19912;-71
2022/01/29 10:02:37;;;;;;;;;;;;;;;;;;5024159;28;19917;-71
2022/01/29 10:05:04;;;;;;;;;;;;;;;;;;5027756;28;19923;-71
2022/01/29 10:07:30;;;;;;;;;;;;;;;;;;5029265;28;19917;-70
2022/01/29 10:09:55;;;;;;;;;;;;;;;;;;5026111;28;19916;-70
2022/01/29 10:12:20;;;;;;;;;;;;;;;;;;5027850;28;20069;-70
2022/01/29 10:14:45;;;;;;;;;;;;;;;;;;5025033;28;19928;-71
2022/01/29 10:17:10;;;;;;;;;;;;;;;;;;5024998;28;19916;-70
2022/01/29 10:19:36;;;;;;;;;;;;;;;;;;5025959;28;19917;-70
2022/01/29 10:22:01;;;;;;;;;;;;;;;;;;5024161;28;20381;-69
2022/01/29 10:24:26;;;;;;;;;;;;;;;;;;5027249;28;20044;-71
2022/01/29 10:26:51;;;;;;;;;;;;;;;;;;5025717;28;19916;-69
2022/01/29 10:29:17;;;;;;;;;;;;;;;;;;5024243;28;20287;-69
2022/01/29 10:31:42;;;;;;;;;;;;;;;;;;5023387;28;20171;-70
2022/01/29 10:34:07;;;;;;;;;;;;;;;;;;5025665;28;19975;-69
2022/01/29 10:36:33;;;;;;;;;;;;;;;;;;5027224;28;20344;-70
2022/01/29 10:38:58;;;;;;;;;;;;;;;;;;5027397;28;19917;-70
2022/01/29 10:41:24;;;;;;;;;;;;;;;;;;5026712;28;20391;-69
2022/01/29 10:43:50;;;;;;;;;;;;;;;;;;5029158;28;19968;-70
2022/01/29 10:46:15;;;;;;;;;;;;;;;;;;5027581;28;20493;-71
2022/01/29 10:48:40;;;;;;;;;;;;;;;;;;5018063;28;20391;-70
2022/01/29 10:51:05;;;;;;;;;;;;;;;;;;5025162;28;20368;-69
2022/01/29 10:53:30;;;;;;;;;;;;;;;;;;5022810;28;19965;-70
2022/01/29 10:55:55;;;;;;;;;;;;;;;;;;5024904;28;19920;-71
2022/01/29 10:58:21;;;;;;;;;;;;;;;;;;5024144;28;20471;-69
2022/01/29 11:00:46;;;;;;;;;;;;;;;;;;5024170;28;19927;-70
2022/01/29 11:03:11;;;;;;;;;;;;;;;;;;5016997;28;19916;-70
2022/01/29 11:05:36;;;;;;;;;;;;;;;;;;5023027;28;19916;-70
2022/01/29 11:08:03;;;;;;;;;;;;;;;;;;5024412;28;19917;-67
2022/01/29 11:10:29;;;;;;;;;;;;;;;;;;5043797;28;20649;-66
2022/01/29 11:12:54;;;;;;;;;;;;;;;;;;5045848;28;19964;-68
2022/01/29 11:15:20;;;;;;;;;;;;;;;;;;5044258;28;20076;-66
2022/01/29 11:17:45;;;;;;;;;;;;;;;;;;5043484;28;19970;-66
2022/01/29 11:20:11;;;;;;;;;;;;;;;;;;5043460;28;19962;-70
2022/01/29 11:22:38;;;;;;;;;;;;;;;;;;5042690;28;20011;-67
2022/01/29 11:25:03;;;;;;;;;;;;;;;;;;5045220;28;20015;-68
2022/01/29 11:27:28;;;;;;;;;;;;;;;;;;5044158;28;20055;-69
2022/01/29 11:29:54;;;;;;;;;;;;;;;;;;5046006;28;19956;-66
2022/01/29 11:32:19;;;;;;;;;;;;;;;;;;5044182;28;20066;-67
2022/01/29 11:34:44;;;;;;;;;;;;;;;;;;5045301;28;19925;-65
2022/01/29 11:37:10;;;;;;;;;;;;;;;;;;5047719;28;19916;-67
2022/01/29 11:39:36;;;;;;;;;;;;;;;;;;5046656;28;20208;-66
2022/01/29 11:42:01;;;;;;;;;;;;;;;;;;5049062;28;19924;-70
2022/01/29 11:44:26;;;;;;;;;;;;;;;;;;5046135;28;19917;-67
2022/01/29 11:46:52;;;;;;;;;;;;;;;;;;5048882;28;19916;-68
2022/01/29 11:49:17;;;;;;;;;;;;;;;;;;5045485;28;20046;-69
2022/01/29 11:51:42;;;;;;;;;;;;;;;;;;5046913;28;19920;-67
2022/01/29 11:54:08;;;;;;;;;;;;;;;;;;5044177;28;20057;-67
2022/01/29 11:56:33;;;;;;;;;;;;;;;;;;5046230;28;20370;-65
2022/01/29 11:58:58;;;;;;;;;;;;;;;;;;5046710;28;19947;-66
2022/01/29 12:01:23;;;;;;;;;;;;;;;;;;5046793;28;19924;-67
2022/01/29 12:03:48;;;;;;;;;;;;;;;;;;5047975;28;19917;-66
2022/01/29 12:06:26;;;;;;;;;;;;;;;;;;5048476;28;20305;-67
2022/01/29 12:08:52;;;;;;;;;;;;;;;;;;5047037;28;19916;-67
2022/01/29 12:11:18;;;;;;;;;;;;;;;;;;5048631;28;19939;-67
2022/01/29 12:13:43;;;;;;;;;;;;;;;;;;5046658;28;20012;-67
2022/01/29 12:16:09;;;;;;;;;;;;;;;;;;5047060;28;20040;-66
2022/01/29 12:18:34;;;;;;;;;;;;;;;;;;5047891;28;20011;-66
2022/01/29 12:21:00;;;;;;;;;;;;;;;;;;5047520;28;19917;-68
2022/01/29 12:23:25;;;;;;;;;;;;;;;;;;5049492;28;20328;-68
2022/01/29 12:25:50;;;;;;;;;;;;;;;;;;5045062;28;19943;-68
2022/01/29 12:28:15;;;;;;;;;;;;;;;;;;5045656;28;20412;-68
2022/01/29 12:30:41;;;;;;;;;;;;;;;;;;5029461;28;19971;-67
2022/01/29 12:33:06;;;;;;;;;;;;;;;;;;5047095;28;19955;-68
2022/01/29 12:35:31;;;;;;;;;;;;;;;;;;5047119;28;20329;-67
2022/01/29 12:37:56;;;;;;;;;;;;;;;;;;5050053;28;20384;-68
2022/01/29 12:40:22;;;;;;;;;;;;;;;;;;5047112;28;20471;-68
2022/01/29 12:42:59;;;;;;;;;;;;;;;;;;5048190;28;19917;-67
2022/01/29 12:45:24;;;;;;;;;;;;;;;;;;5049220;28;20312;-68
2022/01/29 12:47:49;;;;;;;;;;;;;;;;;;5048877;28;20361;-67
2022/01/29 12:50:14;;;;;;;;;;;;;;;;;;5041449;28;20003;-68
2022/01/29 12:52:40;;;;;;;;;;;;;;;;;;5047505;28;19917;-68
2022/01/29 12:55:05;;;;;;;;;;;;;;;;;;5044473;28;19920;-68
2022/01/29 12:57:31;;;;;;;;;;;;;;;;;;5045511;28;19916;-68
2022/01/29 12:59:57;;;;;;;;;;;;;;;;;;5045373;28;20012;-69
2022/01/29 13:02:23;;;;;;;;;;;;;;;;;;5048267;28;20003;-69
2022/01/29 13:04:48;;;;;;;;;;;;;;;;;;5045471;28;19962;-68
2022/01/29 13:07:14;;;;;;;;;;;;;;;;;;5043721;28;19920;-69
2022/01/29 13:09:39;;;;;;;;;;;;;;;;;;5047246;28;19916;-68
2022/01/29 13:12:04;;;;;;;;;;;;;;;;;;5045296;28;19916;-68
2022/01/29 13:14:29;;;;;;;;;;;;;;;;;;5047005;28;19927;-68
2022/01/29 13:16:55;;;;;;;;;;;;;;;;;;5045959;28;20285;-67
2022/01/29 13:19:20;;;;;;;;;;;;;;;;;;5045378;28;20266;-67
2022/01/29 13:21:45;;;;;;;;;;;;;;;;;;5047641;28;19917;-68
2022/01/29 13:24:10;;;;;;;;;;;;;;;;;;5048578;28;20365;-68
2022/01/29 13:26:35;;;;;;;;;;;;;;;;;;5046477;28;20360;-67
2022/01/29 13:29:05;;;;;;;;;;;;;;;;;;5045936;28;20115;-68
2022/01/29 13:31:30;;;;;;;;;;;;;;;;;;5047933;28;19963;-69
2022/01/29 13:33:56;;;;;;;;;;;;;;;;;;5047798;28;19924;-68
2022/01/29 13:36:22;;;;;;;;;;;;;;;;;;5048823;28;19927;-68
2022/01/29 13:38:47;;;;;;;;;;;;;;;;;;5047968;28;19916;-68
2022/01/29 13:41:12;;;;;;;;;;;;;;;;;;5048345;28;19917;-68
2022/01/29 13:43:39;;;;;;;;;;;;;;;;;;5047296;28;19916;-69
2022/01/29 13:46:04;;;;;;;;;;;;;;;;;;5050236;28;19921;-68
2022/01/29 13:48:29;;;;;;;;;;;;;;;;;;5048367;28;19917;-67
2022/01/29 13:50:56;;;;;;;;;;;;;;;;;;5048907;28;19916;-68
2022/01/29 13:53:21;;;;;;;;;;;;;;;;;;5048212;28;20007;-67
2022/01/29 13:55:47;;;;;;;;;;;;;;;;;;5046190;28;20388;-68
2022/01/29 13:58:12;;;;;;;;;;;;;;;;;;5046704;28;20469;-67
2022/01/29 14:00:37;;;;;;;;;;;;;;;;;;5049467;28;19948;-68
2022/01/29 14:03:02;;;;;;;;;;;;;;;;;;5048661;28;19916;-69
2022/01/29 14:05:29;;;;;;;;;;;;;;;;;;5049984;28;19920;-67
2022/01/29 14:07:54;;;;;;;;;;;;;;;;;;5047624;28;19924;-68
2022/01/29 14:10:20;;;;;;;;;;;;;;;;;;5051567;28;19916;-67
2022/01/29 14:12:45;;;;;;;;;;;;;;;;;;5048980;28;19928;-68
2022/01/29 14:15:11;;;;;;;;;;;;;;;;;;5048457;28;19991;-67
2022/01/29 14:17:36;;;;;;;;;;;;;;;;;;5048935;28;20369;-67
2022/01/29 14:20:01;;;;;;;;;;;;;;;;;;5046882;28;19917;-68
2022/01/29 14:22:27;;;;;;;;;;;;;;;;;;5046465;28;20332;-68
2022/01/29 14:24:52;;;;;;;;;;;;;;;;;;5050879;28;20410;-68
2022/01/29 14:27:17;;;;;;;;;;;;;;;;;;5046015;28;20022;-67
2022/01/29 14:29:42;;;;;;;;;;;;;;;;;;5046980;28;20692;-68
2022/01/29 14:32:08;;;;;;;;;;;;;;;;;;5048581;28;19924;-68
2022/01/29 14:34:33;;;;;;;;;;;;;;;;;;5046073;28;19917;-67
2022/01/29 14:36:58;;;;;;;;;;;;;;;;;;5048479;28;20251;-67
2022/01/29 14:39:23;;;;;;;;;;;;;;;;;;5047349;28;20707;-68
2022/01/29 14:41:49;;;;;;;;;;;;;;;;;;5048029;28;20475;-68
2022/01/29 14:44:14;;;;;;;;;;;;;;;;;;5050568;28;19916;-67
2022/01/29 14:46:39;;;;;;;;;;;;;;;;;;5046335;28;19959;-68
2022/01/29 14:49:04;;;;;;;;;;;;;;;;;;5048332;28;19928;-68
2022/01/29 14:51:34;;;;;;;;;;;;;;;;;;5051421;28;19924;-68
2022/01/29 14:54:00;;;;;;;;;;;;;;;;;;5044110;28;20369;-68
2022/01/29 14:56:25;;;;;;;;;;;;;;;;;;5045523;28;19920;-68
2022/01/29 14:58:50;;;;;;;;;;;;;;;;;;5050992;28;20348;-68
2022/01/29 15:01:16;;;;;;;;;;;;;;;;;;5050708;28;20286;-68
2022/01/29 15:03:41;;;;;;;;;;;;;;;;;;5048665;28;20348;-68
2022/01/29 15:06:06;;;;;;;;;;;;;;;;;;5050014;28;19920;-69
2022/01/29 15:08:32;;;;;;;;;;;;;;;;;;5048475;28;19995;-68
2022/01/29 15:10:57;;;;;;;;;;;;;;;;;;5048775;28;19917;-68
2022/01/29 15:13:25;;;;;;;;;;;;;;;;;;5055731;28;19959;-68
2022/01/29 15:15:50;;;;;;;;;;;;;;;;;;5057185;28;19916;-68
2022/01/29 15:18:15;;;;;;;;;;;;;;;;;;5050498;28;19966;-68
2022/01/29 15:20:42;;;;;;;;;;;;;;;;;;5050068;28;19916;-68
2022/01/29 15:23:07;;;;;;;;;;;;;;;;;;5046817;28;20313;-68
2022/01/29 15:25:35;;;;;;;;;;;;;;;;;;5050558;28;19920;-68
2022/01/29 15:28:00;;;;;;;;;;;;;;;;;;5047922;28;19971;-68
2022/01/29 15:30:25;;;;;;;;;;;;;;;;;;5052414;28;19920;-68
2022/01/29 15:32:53;;;;;;;;;;;;;;;;;;5055487;28;19967;-68
2022/01/29 15:35:19;;;;;;;;;;;;;;;;;;5047369;28;20400;-69
2022/01/29 15:37:44;;;;;;;;;;;;;;;;;;5047616;28;19921;-68
2022/01/29 15:40:09;;;;;;;;;;;;;;;;;;5047627;28;20016;-68
2022/01/29 15:42:34;;;;;;;;;;;;;;;;;;5053033;28;19921;-69
2022/01/29 15:45:00;;;;;;;;;;;;;;;;;;5053349;28;19916;-67
2022/01/29 15:47:25;;;;;;;;;;;;;;;;;;5046470;28;19916;-68
2022/01/29 15:49:50;;;;;;;;;;;;;;;;;;5046688;28;19921;-69
2022/01/29 15:52:15;;;;;;;;;;;;;;;;;;5045657;28;20774;-67
2022/01/29 15:54:40;;;;;;;;;;;;;;;;;;5046883;28;20013;-67
2022/01/29 15:57:06;;;;;;;;;;;;;;;;;;5047345;28;20069;-68
2022/01/29 15:59:31;;;;;;;;;;;;;;;;;;5044396;28;19917;-68
2022/01/29 16:01:58;;;;;;;;;;;;;;;;;;5047025;28;19913;-68
2022/01/29 16:04:23;;;;;;;;;;;;;;;;;;5045241;28;19924;-68
2022/01/29 16:06:48;;;;;;;;;;;;;;;;;;5045720;28;19917;-69
2022/01/29 16:09:14;;;;;;;;;;;;;;;;;;5043836;28;19916;-68
2022/01/29 16:11:39;;;;;;;;;;;;;;;;;;5049115;28;20032;-68
2022/01/29 16:14:04;;;;;;;;;;;;;;;;;;5048055;28;19931;-68
2022/01/29 16:16:29;;;;;;;;;;;;;;;;;;5045158;28;20384;-68
2022/01/29 16:18:54;;;;;;;;;;;;;;;;;;5045953;28;19920;-68
2022/01/29 16:21:20;;;;;;;;;;;;;;;;;;5044775;28;19917;-68
2022/01/29 16:23:45;;;;;;;;;;;;;;;;;;5045817;28;19923;-68
2022/01/29 16:26:10;;;;;;;;;;;;;;;;;;5049365;28;19999;-69
2022/01/29 16:28:35;;;;;;;;;;;;;;;;;;5046490;28;19917;-68
2022/01/29 16:31:00;;;;;;;;;;;;;;;;;;5046542;28;19987;-68
2022/01/29 16:33:26;;;;;;;;;;;;;;;;;;5047619;28;19999;-68
2022/01/29 16:35:51;;;;;;;;;;;;;;;;;;5045597;28;20344;-68
2022/01/29 16:38:16;;;;;;;;;;;;;;;;;;5045337;28;19916;-68
2022/01/29 16:40:41;;;;;;;;;;;;;;;;;;5047772;28;19923;-68
2022/01/29 16:43:06;;;;;;;;;;;;;;;;;;5045106;28;20347;-69
2022/01/29 16:45:37;;;;;;;;;;;;;;;;;;5046456;28;20563;-69
2022/01/29 16:48:02;;;;;;;;;;;;;;;;;;5039894;28;19999;-68